Pace, MS

6:30 PM CDT on July 23, 2014 (GMT -0500)
Cleveland Municipal (KRNV) Elev 138 ft | 33.76 °N, 90.76 °W | Change Station
Active Advisory: Severe Thunderstorm Warning

Current weather conditions updated 15 minutes ago

Clear
Clear
86 °F
Feels Like 100 °F
N
0
Wind Variable Wind from North

Tomorrow is forecast to be Cooler than today.

Today
High -- | Low -- °F
--% Chance of Precip.
Yesterday
High -- | Low -- °F
Precip. -- in
6:09 AM 8:10 PM
Waning Crescent, 8% visible
Pressure 29.98 in
Visibility 10.0 miles
Clouds Clear
Heat Index 100 °F
Dew Point 79 °F
Humidity 79%
Rainfall 0.00 in
Snow Depth Not available.
UV 2 out of 12
Pollen 4.90 out of 12
Air Quality Not available.
Flu Activity Not available.
METAR KRNV 232315Z AUTO 00000KT 10SM CLR 30/26 A2998 RMK AO2 LTG DSNT NW THRU NE T03020261

More Conditions Fewer Conditions

Pressure 29.98 in
Visibility 10.0 miles
Clouds Clear
Heat Index 100 °F
Dew Point 79 °F
Humidity 79%
Rainfall 0.00 in
Snow Depth Not available.
UV 2 out of 12
Pollen 4.90 out of 12
Air Quality Not available.
Flu Activity Not available.
METAR KRNV 232315Z AUTO 00000KT 10SM CLR 30/26 A2998 RMK AO2 LTG DSNT NW THRU NE T03020261

More Conditions Fewer Conditions

10-Day Weather Forecast

Almanac

Astronomy

Jul. 23, 2014 Rise Set
Actual Time 6:09 AM CDT 8:10 PM CDT
Civil Twilight 5:41 AM CDT 8:38 PM CDT
Nautical Twilight 5:07 AM CDT 9:12 PM CDT
Astronomical Twilight 4:30 AM CDT 9:48 PM CDT
Moon 3:27 AM CDT 5:40 PM CDT
Length of Visible Light 14h 57m
Length of Day
14h 01m
Tomorrow will be 1m 19s shorter.
Waning Crescent, 8% of the Moon is Illuminated
Today
Waning Crescent
Jul 26
New
Aug 3
First Quarter
Aug 10
Full
Aug 17
Last Quarter

Today's Extremes

State Highs State Lows

Community

WunderPhotos

Upload Photos

1,736,817 photos uploaded!

Nearby

Snow Depth

Station Depth Elevation
No new snow has been reported.

Earthquake Activity

City Distance Mag. Time & Date
No recent earthquake activity has been reported nearby.
Minimum magnitude displayed is 2.5.

Coastal Water Temperatures

Place Temperature
No Stations Reporting

Nearby Weather Stations

Station Location Temp. Heat Index Dew Point Humidity Wind Precip. Elev Updated Type
MesoWest SCOTT , Scott, MS 89 °F 98 °F 74 °F 61% West  at  2 mph 0.00 in / hr 165 ft 5:00 PM CDT MADIS

Show More Stations Show Fewer Stations